sensor_id;sensor_type;location;lat;lon;timestamp;pressure;altitude;pressure_sealevel;temperature
8362;BMP180;4218;48.326;14.304;2022-10-16T00:02:23;98458.00;;;11.40
8362;BMP180;4218;48.326;14.304;2022-10-16T00:04:48;98452.00;;;11.40
8362;BMP180;4218;48.326;14.304;2022-10-16T00:07:14;98446.00;;;11.50
8362;BMP180;4218;48.326;14.304;2022-10-16T00:09:39;98463.00;;;11.50
8362;BMP180;4218;48.326;14.304;2022-10-16T00:12:04;98454.00;;;11.40
8362;BMP180;4218;48.326;14.304;2022-10-16T00:14:31;98467.00;;;11.50
8362;BMP180;4218;48.326;14.304;2022-10-16T00:16:57;98446.00;;;11.50
8362;BMP180;4218;48.326;14.304;2022-10-16T00:19:22;98470.00;;;11.50
8362;BMP180;4218;48.326;14.304;2022-10-16T00:21:47;98453.00;;;11.60
8362;BMP180;4218;48.326;14.304;2022-10-16T00:24:13;98459.00;;;11.50
8362;BMP180;4218;48.326;14.304;2022-10-16T00:26:39;98465.00;;;11.60
8362;BMP180;4218;48.326;14.304;2022-10-16T00:29:06;98453.00;;;11.60
8362;BMP180;4218;48.326;14.304;2022-10-16T00:31:31;98465.00;;;11.70
8362;BMP180;4218;48.326;14.304;2022-10-16T00:33:57;98461.00;;;11.60
8362;BMP180;4218;48.326;14.304;2022-10-16T00:36:24;98454.00;;;11.60
8362;BMP180;4218;48.326;14.304;2022-10-16T00:38:51;98447.00;;;11.60
8362;BMP180;4218;48.326;14.304;2022-10-16T00:41:18;98461.00;;;11.50
8362;BMP180;4218;48.326;14.304;2022-10-16T00:43:48;98452.00;;;11.40
8362;BMP180;4218;48.326;14.304;2022-10-16T00:49:02;98466.00;;;11.50
8362;BMP180;4218;48.326;14.304;2022-10-16T00:51:33;98476.00;;;11.60
8362;BMP180;4218;48.326;14.304;2022-10-16T00:53:59;98457.00;;;11.50
8362;BMP180;4218;48.326;14.304;2022-10-16T00:56:25;98467.00;;;11.70
8362;BMP180;4218;48.326;14.304;2022-10-16T00:58:50;98465.00;;;11.50
8362;BMP180;4218;48.326;14.304;2022-10-16T01:01:16;98472.00;;;11.50
8362;BMP180;4218;48.326;14.304;2022-10-16T01:03:41;98471.00;;;11.50
8362;BMP180;4218;48.326;14.304;2022-10-16T01:06:29;98467.00;;;11.50
8362;BMP180;4218;48.326;14.304;2022-10-16T01:09:17;98460.00;;;11.40
8362;BMP180;4218;48.326;14.304;2022-10-16T01:12:10;98468.00;;;11.50
8362;BMP180;4218;48.326;14.304;2022-10-16T01:17:24;98474.00;;;11.40
8362;BMP180;4218;48.326;14.304;2022-10-16T01:20:13;98470.00;;;11.40
8362;BMP180;4218;48.326;14.304;2022-10-16T01:26:13;98486.00;;;11.40
8362;BMP180;4218;48.326;14.304;2022-10-16T01:28:56;98467.00;;;11.30
8362;BMP180;4218;48.326;14.304;2022-10-16T01:31:26;98498.00;;;11.20
8362;BMP180;4218;48.326;14.304;2022-10-16T01:34:01;98474.00;;;11.20
8362;BMP180;4218;48.326;14.304;2022-10-16T01:36:51;98477.00;;;11.20
8362;BMP180;4218;48.326;14.304;2022-10-16T01:39:22;98486.00;;;11.30
8362;BMP180;4218;48.326;14.304;2022-10-16T01:42:03;98496.00;;;11.40
8362;BMP180;4218;48.326;14.304;2022-10-16T01:44:32;98491.00;;;11.30
8362;BMP180;4218;48.326;14.304;2022-10-16T01:46:59;98479.00;;;11.40
8362;BMP180;4218;48.326;14.304;2022-10-16T01:49:27;98500.00;;;11.40
8362;BMP180;4218;48.326;14.304;2022-10-16T01:51:56;98494.00;;;11.40
8362;BMP180;4218;48.326;14.304;2022-10-16T01:54:26;98494.00;;;11.30
8362;BMP180;4218;48.326;14.304;2022-10-16T01:56:54;98489.00;;;11.30
8362;BMP180;4218;48.326;14.304;2022-10-16T01:59:23;98489.00;;;11.30
8362;BMP180;4218;48.326;14.304;2022-10-16T02:01:52;98506.00;;;11.30
8362;BMP180;4218;48.326;14.304;2022-10-16T02:04:33;98499.00;;;11.30
8362;BMP180;4218;48.326;14.304;2022-10-16T02:06:59;98504.00;;;11.10
8362;BMP180;4218;48.326;14.304;2022-10-16T02:09:25;98490.00;;;11.10
8362;BMP180;4218;48.326;14.304;2022-10-16T02:11:53;98500.00;;;11.10
8362;BMP180;4218;48.326;14.304;2022-10-16T02:14:20;98503.00;;;11.00
8362;BMP180;4218;48.326;14.304;2022-10-16T02:16:47;98509.00;;;10.90
8362;BMP180;4218;48.326;14.304;2022-10-16T02:19:13;98508.00;;;10.80
8362;BMP180;4218;48.326;14.304;2022-10-16T02:27:18;98508.00;;;10.90
8362;BMP180;4218;48.326;14.304;2022-10-16T02:29:46;98506.00;;;10.90
8362;BMP180;4218;48.326;14.304;2022-10-16T02:32:18;98504.00;;;10.80
8362;BMP180;4218;48.326;14.304;2022-10-16T02:34:47;98511.00;;;10.80
8362;BMP180;4218;48.326;14.304;2022-10-16T02:37:14;98519.00;;;10.80
8362;BMP180;4218;48.326;14.304;2022-10-16T02:39:40;98520.00;;;10.70
8362;BMP180;4218;48.326;14.304;2022-10-16T02:42:11;98509.00;;;10.70
8362;BMP180;4218;48.326;14.304;2022-10-16T02:44:36;98521.00;;;10.60
8362;BMP180;4218;48.326;14.304;2022-10-16T02:47:02;98530.00;;;10.50
8362;BMP180;4218;48.326;14.304;2022-10-16T02:49:27;98524.00;;;10.40
8362;BMP180;4218;48.326;14.304;2022-10-16T02:51:52;98512.00;;;10.30
8362;BMP180;4218;48.326;14.304;2022-10-16T02:54:18;98536.00;;;10.40
8362;BMP180;4218;48.326;14.304;2022-10-16T02:56:43;98537.00;;;10.20
8362;BMP180;4218;48.326;14.304;2022-10-16T02:59:09;98526.00;;;10.30
8362;BMP180;4218;48.326;14.304;2022-10-16T03:01:34;98526.00;;;10.20
8362;BMP180;4218;48.326;14.304;2022-10-16T03:04:00;98540.00;;;10.20
8362;BMP180;4218;48.326;14.304;2022-10-16T03:06:25;98544.00;;;10.30
8362;BMP180;4218;48.326;14.304;2022-10-16T03:08:50;98535.00;;;10.60
8362;BMP180;4218;48.326;14.304;2022-10-16T03:11:16;98551.00;;;10.60
8362;BMP180;4218;48.326;14.304;2022-10-16T03:13:41;98552.00;;;10.50
8362;BMP180;4218;48.326;14.304;2022-10-16T03:16:07;98554.00;;;10.50
8362;BMP180;4218;48.326;14.304;2022-10-16T03:18:32;98551.00;;;10.40
8362;BMP180;4218;48.326;14.304;2022-10-16T03:20:57;98556.00;;;10.40
8362;BMP180;4218;48.326;14.304;2022-10-16T03:23:23;98563.00;;;10.40
8362;BMP180;4218;48.326;14.304;2022-10-16T03:25:48;98552.00;;;10.40
8362;BMP180;4218;48.326;14.304;2022-10-16T03:28:13;98557.00;;;10.40
8362;BMP180;4218;48.326;14.304;2022-10-16T03:30:39;98552.00;;;10.40
8362;BMP180;4218;48.326;14.304;2022-10-16T03:33:05;98566.00;;;10.20
8362;BMP180;4218;48.326;14.304;2022-10-16T03:35:31;98569.00;;;10.10
8362;BMP180;4218;48.326;14.304;2022-10-16T03:37:57;98545.00;;;10.10
8362;BMP180;4218;48.326;14.304;2022-10-16T03:40:22;98567.00;;;10.00
8362;BMP180;4218;48.326;14.304;2022-10-16T03:42:48;98559.00;;;10.00
8362;BMP180;4218;48.326;14.304;2022-10-16T03:45:13;98568.00;;;10.10
8362;BMP180;4218;48.326;14.304;2022-10-16T03:47:39;98564.00;;;10.30
8362;BMP180;4218;48.326;14.304;2022-10-16T03:50:05;98560.00;;;10.30
8362;BMP180;4218;48.326;14.304;2022-10-16T03:52:30;98571.00;;;10.20
8362;BMP180;4218;48.326;14.304;2022-10-16T03:54:57;98562.00;;;10.20
8362;BMP180;4218;48.326;14.304;2022-10-16T03:57:22;98550.00;;;10.10
8362;BMP180;4218;48.326;14.304;2022-10-16T03:59:48;98572.00;;;10.00
8362;BMP180;4218;48.326;14.304;2022-10-16T04:02:13;98578.00;;;9.90
8362;BMP180;4218;48.326;14.304;2022-10-16T04:04:39;98553.00;;;10.00
8362;BMP180;4218;48.326;14.304;2022-10-16T04:07:04;98570.00;;;10.20
8362;BMP180;4218;48.326;14.304;2022-10-16T04:09:30;98571.00;;;10.20
8362;BMP180;4218;48.326;14.304;2022-10-16T04:11:55;98587.00;;;10.30
8362;BMP180;4218;48.326;14.304;2022-10-16T04:14:20;98591.00;;;10.30
8362;BMP180;4218;48.326;14.304;2022-10-16T04:16:46;98585.00;;;10.40
8362;BMP180;4218;48.326;14.304;2022-10-16T04:19:11;98580.00;;;10.40
8362;BMP180;4218;48.326;14.304;2022-10-16T04:21:37;98577.00;;;10.40
8362;BMP180;4218;48.326;14.304;2022-10-16T04:24:03;98592.00;;;10.50
8362;BMP180;4218;48.326;14.304;2022-10-16T04:26:29;98580.00;;;10.50
8362;BMP180;4218;48.326;14.304;2022-10-16T04:28:54;98577.00;;;10.40
8362;BMP180;4218;48.326;14.304;2022-10-16T04:31:20;98594.00;;;10.40
8362;BMP180;4218;48.326;14.304;2022-10-16T04:33:45;98565.00;;;10.50
8362;BMP180;4218;48.326;14.304;2022-10-16T04:36:10;98579.00;;;10.60
8362;BMP180;4218;48.326;14.304;2022-10-16T04:38:36;98581.00;;;10.50
8362;BMP180;4218;48.326;14.304;2022-10-16T04:41:03;98590.00;;;10.50
8362;BMP180;4218;48.326;14.304;2022-10-16T04:43:28;98582.00;;;10.50
8362;BMP180;4218;48.326;14.304;2022-10-16T04:45:54;98593.00;;;10.60
8362;BMP180;4218;48.326;14.304;2022-10-16T04:48:19;98608.00;;;10.60
8362;BMP180;4218;48.326;14.304;2022-10-16T04:50:45;98591.00;;;10.50
8362;BMP180;4218;48.326;14.304;2022-10-16T04:53:11;98606.00;;;10.60
8362;BMP180;4218;48.326;14.304;2022-10-16T04:55:36;98601.00;;;10.60
8362;BMP180;4218;48.326;14.304;2022-10-16T04:58:02;98614.00;;;10.70
8362;BMP180;4218;48.326;14.304;2022-10-16T05:00:28;98610.00;;;10.70
8362;BMP180;4218;48.326;14.304;2022-10-16T05:02:53;98602.00;;;10.70
8362;BMP180;4218;48.326;14.304;2022-10-16T05:05:19;98588.00;;;10.50
8362;BMP180;4218;48.326;14.304;2022-10-16T05:07:48;98594.00;;;10.60
8362;BMP180;4218;48.326;14.304;2022-10-16T05:10:15;98592.00;;;10.70
8362;BMP180;4218;48.326;14.304;2022-10-16T05:12:40;98613.00;;;10.60
8362;BMP180;4218;48.326;14.304;2022-10-16T05:15:06;98608.00;;;10.70
8362;BMP180;4218;48.326;14.304;2022-10-16T05:17:31;98610.00;;;10.80
8362;BMP180;4218;48.326;14.304;2022-10-16T05:19:57;98624.00;;;10.70
8362;BMP180;4218;48.326;14.304;2022-10-16T05:22:22;98624.00;;;10.70
8362;BMP180;4218;48.326;14.304;2022-10-16T05:24:47;98618.00;;;10.80
8362;BMP180;4218;48.326;14.304;2022-10-16T05:27:13;98612.00;;;10.90
8362;BMP180;4218;48.326;14.304;2022-10-16T05:29:45;98598.00;;;10.90
8362;BMP180;4218;48.326;14.304;2022-10-16T05:32:12;98619.00;;;10.90
8362;BMP180;4218;48.326;14.304;2022-10-16T05:34:38;98630.00;;;10.80
8362;BMP180;4218;48.326;14.304;2022-10-16T05:37:03;98636.00;;;10.70
8362;BMP180;4218;48.326;14.304;2022-10-16T05:39:28;98638.00;;;10.70
8362;BMP180;4218;48.326;14.304;2022-10-16T05:41:54;98636.00;;;10.70
8362;BMP180;4218;48.326;14.304;2022-10-16T05:44:19;98638.00;;;10.70
8362;BMP180;4218;48.326;14.304;2022-10-16T05:46:46;98660.00;;;10.70
8362;BMP180;4218;48.326;14.304;2022-10-16T05:49:11;98650.00;;;10.80
8362;BMP180;4218;48.326;14.304;2022-10-16T05:51:37;98655.00;;;10.80
8362;BMP180;4218;48.326;14.304;2022-10-16T05:54:02;98653.00;;;10.90
8362;BMP180;4218;48.326;14.304;2022-10-16T05:56:28;98647.00;;;11.00
8362;BMP180;4218;48.326;14.304;2022-10-16T05:58:53;98660.00;;;11.00
8362;BMP180;4218;48.326;14.304;2022-10-16T06:01:19;98671.00;;;11.00
8362;BMP180;4218;48.326;14.304;2022-10-16T06:03:46;98656.00;;;10.90
8362;BMP180;4218;48.326;14.304;2022-10-16T06:06:16;98650.00;;;10.90
8362;BMP180;4218;48.326;14.304;2022-10-16T06:08:42;98668.00;;;10.90
8362;BMP180;4218;48.326;14.304;2022-10-16T06:11:10;98667.00;;;10.90
8362;BMP180;4218;48.326;14.304;2022-10-16T06:13:36;98670.00;;;10.90
8362;BMP180;4218;48.326;14.304;2022-10-16T06:16:02;98654.00;;;11.00
8362;BMP180;4218;48.326;14.304;2022-10-16T06:18:29;98677.00;;;11.10
8362;BMP180;4218;48.326;14.304;2022-10-16T06:20:56;98672.00;;;11.20
8362;BMP180;4218;48.326;14.304;2022-10-16T06:23:22;98667.00;;;11.20
8362;BMP180;4218;48.326;14.304;2022-10-16T06:25:48;98690.00;;;11.40
8362;BMP180;4218;48.326;14.304;2022-10-16T06:28:15;98675.00;;;11.40
8362;BMP180;4218;48.326;14.304;2022-10-16T06:30:41;98668.00;;;11.30
8362;BMP180;4218;48.326;14.304;2022-10-16T06:33:09;98674.00;;;11.40
8362;BMP180;4218;48.326;14.304;2022-10-16T06:35:34;98673.00;;;11.50
8362;BMP180;4218;48.326;14.304;2022-10-16T06:37:59;98689.00;;;11.60
8362;BMP180;4218;48.326;14.304;2022-10-16T06:40:25;98677.00;;;11.60
8362;BMP180;4218;48.326;14.304;2022-10-16T06:42:50;98683.00;;;11.50
8362;BMP180;4218;48.326;14.304;2022-10-16T06:45:17;98693.00;;;11.40
8362;BMP180;4218;48.326;14.304;2022-10-16T06:47:42;98695.00;;;11.30
8362;BMP180;4218;48.326;14.304;2022-10-16T06:50:09;98706.00;;;11.50
8362;BMP180;4218;48.326;14.304;2022-10-16T06:52:34;98694.00;;;11.50
8362;BMP180;4218;48.326;14.304;2022-10-16T06:55:00;98716.00;;;11.50
8362;BMP180;4218;48.326;14.304;2022-10-16T06:57:26;98711.00;;;11.60
8362;BMP180;4218;48.326;14.304;2022-10-16T06:59:51;98710.00;;;11.70
8362;BMP180;4218;48.326;14.304;2022-10-16T07:02:16;98710.00;;;11.70
8362;BMP180;4218;48.326;14.304;2022-10-16T07:04:42;98728.00;;;11.80
8362;BMP180;4218;48.326;14.304;2022-10-16T07:07:07;98719.00;;;12.00
8362;BMP180;4218;48.326;14.304;2022-10-16T07:09:33;98703.00;;;12.10
8362;BMP180;4218;48.326;14.304;2022-10-16T07:11:58;98691.00;;;12.20
8362;BMP180;4218;48.326;14.304;2022-10-16T07:14:23;98701.00;;;12.30
8362;BMP180;4218;48.326;14.304;2022-10-16T07:16:49;98707.00;;;12.30
8362;BMP180;4218;48.326;14.304;2022-10-16T07:19:15;98716.00;;;12.50
8362;BMP180;4218;48.326;14.304;2022-10-16T07:21:42;98722.00;;;12.60
8362;BMP180;4218;48.326;14.304;2022-10-16T07:24:13;98728.00;;;12.50
8362;BMP180;4218;48.326;14.304;2022-10-16T07:26:39;98724.00;;;12.40
8362;BMP180;4218;48.326;14.304;2022-10-16T07:29:08;98708.00;;;12.60
8362;BMP180;4218;48.326;14.304;2022-10-16T07:31:36;98704.00;;;12.70
8362;BMP180;4218;48.326;14.304;2022-10-16T07:34:01;98715.00;;;12.70
8362;BMP180;4218;48.326;14.304;2022-10-16T07:36:27;98723.00;;;13.10
8362;BMP180;4218;48.326;14.304;2022-10-16T07:38:53;98723.00;;;12.90
8362;BMP180;4218;48.326;14.304;2022-10-16T07:41:19;98740.00;;;13.20
8362;BMP180;4218;48.326;14.304;2022-10-16T07:43:50;98730.00;;;13.40
8362;BMP180;4218;48.326;14.304;2022-10-16T07:46:16;98741.00;;;13.40
8362;BMP180;4218;48.326;14.304;2022-10-16T07:48:42;98728.00;;;13.50
8362;BMP180;4218;48.326;14.304;2022-10-16T07:51:11;98749.00;;;13.40
8362;BMP180;4218;48.326;14.304;2022-10-16T07:53:36;98750.00;;;13.40
8362;BMP180;4218;48.326;14.304;2022-10-16T07:56:04;98738.00;;;13.60
8362;BMP180;4218;48.326;14.304;2022-10-16T07:58:30;98745.00;;;13.50
8362;BMP180;4218;48.326;14.304;2022-10-16T08:00:56;98744.00;;;13.30
8362;BMP180;4218;48.326;14.304;2022-10-16T08:03:22;98747.00;;;13.20
8362;BMP180;4218;48.326;14.304;2022-10-16T08:05:47;98754.00;;;13.40
8362;BMP180;4218;48.326;14.304;2022-10-16T08:08:14;98746.00;;;13.70
8362;BMP180;4218;48.326;14.304;2022-10-16T08:10:40;98737.00;;;13.80
8362;BMP180;4218;48.326;14.304;2022-10-16T08:13:05;98744.00;;;13.70
8362;BMP180;4218;48.326;14.304;2022-10-16T08:15:31;98732.00;;;13.70
8362;BMP180;4218;48.326;14.304;2022-10-16T08:18:01;98717.00;;;13.60
8362;BMP180;4218;48.326;14.304;2022-10-16T08:20:28;98727.00;;;13.70
8362;BMP180;4218;48.326;14.304;2022-10-16T08:22:54;98728.00;;;13.60
8362;BMP180;4218;48.326;14.304;2022-10-16T08:25:21;98739.00;;;13.60
8362;BMP180;4218;48.326;14.304;2022-10-16T08:27:47;98730.00;;;13.80
8362;BMP180;4218;48.326;14.304;2022-10-16T08:30:19;98748.00;;;14.00
8362;BMP180;4218;48.326;14.304;2022-10-16T08:32:47;98735.00;;;14.20
8362;BMP180;4218;48.326;14.304;2022-10-16T08:35:14;98723.00;;;14.20
8362;BMP180;4218;48.326;14.304;2022-10-16T08:37:41;98727.00;;;14.30
8362;BMP180;4218;48.326;14.304;2022-10-16T08:43:16;98757.00;;;14.90
8362;BMP180;4218;48.326;14.304;2022-10-16T08:48:57;98744.00;;;15.00
8362;BMP180;4218;48.326;14.304;2022-10-16T08:51:31;98755.00;;;14.90
8362;BMP180;4218;48.326;14.304;2022-10-16T08:54:08;98751.00;;;15.00
8362;BMP180;4218;48.326;14.304;2022-10-16T08:56:44;98754.00;;;15.00
8362;BMP180;4218;48.326;14.304;2022-10-16T08:59:14;98770.00;;;15.20
8362;BMP180;4218;48.326;14.304;2022-10-16T09:01:45;98742.00;;;15.30
8362;BMP180;4218;48.326;14.304;2022-10-16T09:04:46;98741.00;;;15.70
8362;BMP180;4218;48.326;14.304;2022-10-16T09:18:52;98739.00;;;16.10
8362;BMP180;4218;48.326;14.304;2022-10-16T09:21:31;98757.00;;;16.30
8362;BMP180;4218;48.326;14.304;2022-10-16T09:24:11;98740.00;;;16.40
8362;BMP180;4218;48.326;14.304;2022-10-16T09:26:38;98763.00;;;16.50
8362;BMP180;4218;48.326;14.304;2022-10-16T09:29:04;98762.00;;;16.50
8362;BMP180;4218;48.326;14.304;2022-10-16T09:31:29;98776.00;;;16.30
8362;BMP180;4218;48.326;14.304;2022-10-16T09:33:58;98768.00;;;16.50
8362;BMP180;4218;48.326;14.304;2022-10-16T09:36:26;98785.00;;;16.50
8362;BMP180;4218;48.326;14.304;2022-10-16T09:39:07;98777.00;;;16.60
8362;BMP180;4218;48.326;14.304;2022-10-16T09:41:38;98771.00;;;16.50
8362;BMP180;4218;48.326;14.304;2022-10-16T09:44:12;98795.00;;;16.40
8362;BMP180;4218;48.326;14.304;2022-10-16T09:46:41;98772.00;;;16.30
8362;BMP180;4218;48.326;14.304;2022-10-16T09:49:24;98784.00;;;16.40
8362;BMP180;4218;48.326;14.304;2022-10-16T09:51:51;98785.00;;;16.50
8362;BMP180;4218;48.326;14.304;2022-10-16T09:54:19;98785.00;;;16.60
8362;BMP180;4218;48.326;14.304;2022-10-16T09:56:45;98783.00;;;16.70
8362;BMP180;4218;48.326;14.304;2022-10-16T09:59:17;98782.00;;;16.80
8362;BMP180;4218;48.326;14.304;2022-10-16T10:01:49;98772.00;;;17.00
8362;BMP180;4218;48.326;14.304;2022-10-16T10:04:16;98796.00;;;17.30
8362;BMP180;4218;48.326;14.304;2022-10-16T10:06:47;98776.00;;;17.50
8362;BMP180;4218;48.326;14.304;2022-10-16T10:09:21;98794.00;;;17.40
8362;BMP180;4218;48.326;14.304;2022-10-16T10:19:38;98774.00;;;17.70
8362;BMP180;4218;48.326;14.304;2022-10-16T10:22:24;98779.00;;;17.90
8362;BMP180;4218;48.326;14.304;2022-10-16T10:35:36;98771.00;;;17.80
8362;BMP180;4218;48.326;14.304;2022-10-16T10:38:09;98774.00;;;17.90
8362;BMP180;4218;48.326;14.304;2022-10-16T10:40:55;98749.00;;;17.70
8362;BMP180;4218;48.326;14.304;2022-10-16T10:43:36;98765.00;;;17.80
8362;BMP180;4218;48.326;14.304;2022-10-16T10:46:05;98744.00;;;17.50
8362;BMP180;4218;48.326;14.304;2022-10-16T10:48:54;98762.00;;;17.70
8362;BMP180;4218;48.326;14.304;2022-10-16T10:51:37;98758.00;;;17.70
8362;BMP180;4218;48.326;14.304;2022-10-16T10:54:19;98745.00;;;17.50
8362;BMP180;4218;48.326;14.304;2022-10-16T10:57:28;98756.00;;;17.80
8362;BMP180;4218;48.326;14.304;2022-10-16T11:00:16;98751.00;;;18.10
8362;BMP180;4218;48.326;14.304;2022-10-16T11:02:48;98755.00;;;17.90
8362;BMP180;4218;48.326;14.304;2022-10-16T11:05:30;98748.00;;;17.80
8362;BMP180;4218;48.326;14.304;2022-10-16T11:08:00;98745.00;;;17.80
8362;BMP180;4218;48.326;14.304;2022-10-16T11:11:14;98756.00;;;17.60
8362;BMP180;4218;48.326;14.304;2022-10-16T11:16:18;98741.00;;;18.00
8362;BMP180;4218;48.326;14.304;2022-10-16T11:18:55;98749.00;;;18.10
8362;BMP180;4218;48.326;14.304;2022-10-16T11:21:26;98736.00;;;18.00
8362;BMP180;4218;48.326;14.304;2022-10-16T11:24:06;98732.00;;;18.20
8362;BMP180;4218;48.326;14.304;2022-10-16T11:26:41;98731.00;;;18.10
8362;BMP180;4218;48.326;14.304;2022-10-16T11:29:21;98739.00;;;18.10
8362;BMP180;4218;48.326;14.304;2022-10-16T11:31:57;98749.00;;;18.00
8362;BMP180;4218;48.326;14.304;2022-10-16T11:34:44;98742.00;;;17.90
8362;BMP180;4218;48.326;14.304;2022-10-16T11:37:30;98758.00;;;17.70
8362;BMP180;4218;48.326;14.304;2022-10-16T11:40:31;98741.00;;;17.50
8362;BMP180;4218;48.326;14.304;2022-10-16T11:46:17;98755.00;;;17.30
8362;BMP180;4218;48.326;14.304;2022-10-16T11:48:57;98721.00;;;17.40
8362;BMP180;4218;48.326;14.304;2022-10-16T12:00:24;98736.00;;;17.60
8362;BMP180;4218;48.326;14.304;2022-10-16T12:08:18;98739.00;;;18.00
8362;BMP180;4218;48.326;14.304;2022-10-16T12:10:45;98740.00;;;18.40
8362;BMP180;4218;48.326;14.304;2022-10-16T12:13:34;98732.00;;;18.40
8362;BMP180;4218;48.326;14.304;2022-10-16T12:16:20;98729.00;;;18.40
8362;BMP180;4218;48.326;14.304;2022-10-16T12:18:46;98735.00;;;18.40
8362;BMP180;4218;48.326;14.304;2022-10-16T12:21:14;98721.00;;;18.60
8362;BMP180;4218;48.326;14.304;2022-10-16T12:23:58;98732.00;;;18.70
8362;BMP180;4218;48.326;14.304;2022-10-16T12:26:29;98736.00;;;18.50
8362;BMP180;4218;48.326;14.304;2022-10-16T12:29:12;98733.00;;;18.40
8362;BMP180;4218;48.326;14.304;2022-10-16T12:31:46;98734.00;;;18.60
8362;BMP180;4218;48.326;14.304;2022-10-16T12:36:47;98731.00;;;18.60
8362;BMP180;4218;48.326;14.304;2022-10-16T12:39:22;98735.00;;;18.60
8362;BMP180;4218;48.326;14.304;2022-10-16T12:41:47;98728.00;;;18.70
8362;BMP180;4218;48.326;14.304;2022-10-16T12:44:23;98717.00;;;18.70
8362;BMP180;4218;48.326;14.304;2022-10-16T12:46:49;98724.00;;;18.60
8362;BMP180;4218;48.326;14.304;2022-10-16T12:51:53;98725.00;;;18.50
8362;BMP180;4218;48.326;14.304;2022-10-16T12:54:25;98727.00;;;18.40
8362;BMP180;4218;48.326;14.304;2022-10-16T13:07:56;98730.00;;;18.50
8362;BMP180;4218;48.326;14.304;2022-10-16T13:13:40;98733.00;;;18.70
8362;BMP180;4218;48.326;14.304;2022-10-16T13:16:56;98733.00;;;18.70
8362;BMP180;4218;48.326;14.304;2022-10-16T13:19:33;98731.00;;;18.80
8362;BMP180;4218;48.326;14.304;2022-10-16T13:22:05;98735.00;;;18.80
8362;BMP180;4218;48.326;14.304;2022-10-16T13:24:46;98732.00;;;18.80
8362;BMP180;4218;48.326;14.304;2022-10-16T13:29:54;98734.00;;;18.80
8362;BMP180;4218;48.326;14.304;2022-10-16T13:32:26;98741.00;;;18.80
8362;BMP180;4218;48.326;14.304;2022-10-16T13:34:51;98738.00;;;18.90
8362;BMP180;4218;48.326;14.304;2022-10-16T13:37:20;98738.00;;;18.80
8362;BMP180;4218;48.326;14.304;2022-10-16T13:39:46;98732.00;;;18.80
8362;BMP180;4218;48.326;14.304;2022-10-16T13:42:29;98733.00;;;18.80
8362;BMP180;4218;48.326;14.304;2022-10-16T13:44:56;98736.00;;;18.80
8362;BMP180;4218;48.326;14.304;2022-10-16T13:47:22;98741.00;;;18.70
8362;BMP180;4218;48.326;14.304;2022-10-16T13:50:20;98748.00;;;18.90
8362;BMP180;4218;48.326;14.304;2022-10-16T13:52:45;98751.00;;;19.00
8362;BMP180;4218;48.326;14.304;2022-10-16T13:55:16;98760.00;;;18.90
8362;BMP180;4218;48.326;14.304;2022-10-16T13:57:42;98760.00;;;18.80
8362;BMP180;4218;48.326;14.304;2022-10-16T14:00:18;98761.00;;;18.90
8362;BMP180;4218;48.326;14.304;2022-10-16T14:02:44;98756.00;;;18.90
8362;BMP180;4218;48.326;14.304;2022-10-16T14:05:10;98762.00;;;18.80
8362;BMP180;4218;48.326;14.304;2022-10-16T14:07:36;98759.00;;;18.90
8362;BMP180;4218;48.326;14.304;2022-10-16T14:10:07;98760.00;;;18.90
8362;BMP180;4218;48.326;14.304;2022-10-16T14:12:43;98766.00;;;18.90
8362;BMP180;4218;48.326;14.304;2022-10-16T14:15:17;98770.00;;;18.80
8362;BMP180;4218;48.326;14.304;2022-10-16T14:17:45;98767.00;;;18.70
8362;BMP180;4218;48.326;14.304;2022-10-16T14:20:14;98773.00;;;18.80
8362;BMP180;4218;48.326;14.304;2022-10-16T14:22:42;98775.00;;;18.70
8362;BMP180;4218;48.326;14.304;2022-10-16T14:27:56;98777.00;;;18.80
8362;BMP180;4218;48.326;14.304;2022-10-16T14:30:24;98773.00;;;18.80
8362;BMP180;4218;48.326;14.304;2022-10-16T14:37:54;98774.00;;;18.60
8362;BMP180;4218;48.326;14.304;2022-10-16T14:40:23;98775.00;;;18.60
8362;BMP180;4218;48.326;14.304;2022-10-16T14:42:49;98775.00;;;18.50
8362;BMP180;4218;48.326;14.304;2022-10-16T14:45:22;98779.00;;;18.60
8362;BMP180;4218;48.326;14.304;2022-10-16T14:47:52;98775.00;;;18.60
8362;BMP180;4218;48.326;14.304;2022-10-16T14:50:17;98784.00;;;18.60
8362;BMP180;4218;48.326;14.304;2022-10-16T14:52:43;98776.00;;;18.50
8362;BMP180;4218;48.326;14.304;2022-10-16T14:55:09;98779.00;;;18.50
8362;BMP180;4218;48.326;14.304;2022-10-16T14:57:37;98779.00;;;18.40
8362;BMP180;4218;48.326;14.304;2022-10-16T15:00:13;98782.00;;;18.30
8362;BMP180;4218;48.326;14.304;2022-10-16T15:02:39;98778.00;;;18.30
8362;BMP180;4218;48.326;14.304;2022-10-16T15:05:19;98791.00;;;18.20
8362;BMP180;4218;48.326;14.304;2022-10-16T15:07:46;98791.00;;;18.20
8362;BMP180;4218;48.326;14.304;2022-10-16T15:10:13;98786.00;;;18.20
8362;BMP180;4218;48.326;14.304;2022-10-16T15:12:39;98793.00;;;18.10
8362;BMP180;4218;48.326;14.304;2022-10-16T15:17:50;98783.00;;;18.00
8362;BMP180;4218;48.326;14.304;2022-10-16T15:20:18;98780.00;;;18.00
8362;BMP180;4218;48.326;14.304;2022-10-16T15:22:44;98768.00;;;17.80
8362;BMP180;4218;48.326;14.304;2022-10-16T15:25:33;98785.00;;;17.60
8362;BMP180;4218;48.326;14.304;2022-10-16T15:27:59;98782.00;;;17.70
8362;BMP180;4218;48.326;14.304;2022-10-16T15:30:25;98782.00;;;17.50
8362;BMP180;4218;48.326;14.304;2022-10-16T15:32:51;98791.00;;;17.50
8362;BMP180;4218;48.326;14.304;2022-10-16T15:35:16;98787.00;;;17.40
8362;BMP180;4218;48.326;14.304;2022-10-16T15:37:42;98779.00;;;17.30
8362;BMP180;4218;48.326;14.304;2022-10-16T15:40:09;98787.00;;;17.30
8362;BMP180;4218;48.326;14.304;2022-10-16T15:42:34;98791.00;;;17.20
8362;BMP180;4218;48.326;14.304;2022-10-16T15:44:59;98793.00;;;17.20
8362;BMP180;4218;48.326;14.304;2022-10-16T15:47:25;98786.00;;;17.10
8362;BMP180;4218;48.326;14.304;2022-10-16T15:49:50;98794.00;;;17.10
8362;BMP180;4218;48.326;14.304;2022-10-16T15:52:15;98805.00;;;17.00
8362;BMP180;4218;48.326;14.304;2022-10-16T15:54:42;98806.00;;;17.00
8362;BMP180;4218;48.326;14.304;2022-10-16T15:57:08;98801.00;;;16.80
8362;BMP180;4218;48.326;14.304;2022-10-16T15:59:33;98805.00;;;16.80
8362;BMP180;4218;48.326;14.304;2022-10-16T16:01:59;98806.00;;;16.70
8362;BMP180;4218;48.326;14.304;2022-10-16T16:04:24;98798.00;;;16.60
8362;BMP180;4218;48.326;14.304;2022-10-16T16:06:49;98805.00;;;16.50
8362;BMP180;4218;48.326;14.304;2022-10-16T16:09:15;98809.00;;;16.50
8362;BMP180;4218;48.326;14.304;2022-10-16T16:11:41;98805.00;;;16.50
8362;BMP180;4218;48.326;14.304;2022-10-16T16:14:07;98799.00;;;16.40
8362;BMP180;4218;48.326;14.304;2022-10-16T16:16:35;98801.00;;;16.40
8362;BMP180;4218;48.326;14.304;2022-10-16T16:19:03;98803.00;;;16.40